Time;durP1;ratioP1;P1;durP2;ratioP2;P2;SDS_P1;SDS_P2;PMS_P1;PMS_P2;Temp;Humidity;BMP_temperature;BMP_pressure;BME280_temperature;BME280_humidity;BME280_pressure;Samples;Min_cycle;Max_cycle;Signal;HPM_P1;HPM_P2
2022/11/08 00:01:39;;;;;;;18.00;11.00;;;;;;;20.28;45.57;101279.83;1769512;80;21010;-85
2022/11/08 00:04:08;;;;;;;15.43;11.60;;;;;;;20.27;45.60;101277.63;1762271;80;21547;-85
2022/11/08 00:14:49;;;;;;;17.90;11.78;;;;;;;20.27;45.61;101275.42;1770530;80;21818;-85
2022/11/08 00:17:16;;;;;;;18.70;11.78;;;;;;;20.27;45.63;101272.66;1765117;80;21835;-85
2022/11/08 00:19:42;;;;;;;17.07;11.48;;;;;;;20.26;45.64;101272.39;1747285;80;21073;-85
2022/11/08 00:22:10;;;;;;;20.00;11.43;;;;;;;20.28;45.70;101285.36;1738907;80;21563;-86
2022/11/08 00:24:36;;;;;;;22.32;12.65;;;;;;;20.26;45.70;101287.59;1772591;80;21178;-86
2022/11/08 00:27:10;;;;;;;17.35;12.30;;;;;;;20.26;45.66;101282.89;1753012;80;21065;-85
2022/11/08 00:29:36;;;;;;;18.40;12.03;;;;;;;20.26;45.67;101286.20;1740968;80;21165;-85
2022/11/08 00:32:04;;;;;;;16.77;12.00;;;;;;;20.27;45.68;101284.53;1742942;80;21092;-85
2022/11/08 00:34:31;;;;;;;15.48;11.50;;;;;;;20.27;45.67;101283.71;1703189;81;21035;-85
2022/11/08 00:36:57;;;;;;;16.55;12.05;;;;;;;20.28;45.69;101279.83;1742372;80;21522;-85
2022/11/08 00:39:24;;;;;;;17.07;11.30;;;;;;;20.28;45.71;101282.59;1738847;81;21075;-85
2022/11/08 00:41:56;;;;;;;16.90;11.83;;;;;;;20.28;45.74;101275.69;1755796;80;21098;-85
2022/11/08 00:44:22;;;;;;;16.55;11.90;;;;;;;20.27;45.75;101276.25;1742013;80;21138;-85
2022/11/08 00:46:49;;;;;;;18.00;12.20;;;;;;;20.27;45.75;101275.42;1757707;80;21003;-85
2022/11/08 00:49:15;;;;;;;17.17;12.03;;;;;;;20.28;45.76;101278.45;1747949;79;21153;-85
2022/11/08 00:51:41;;;;;;;18.52;13.00;;;;;;;20.28;45.76;101274.30;1753593;80;21706;-85
2022/11/08 00:54:10;;;;;;;17.27;12.13;;;;;;;20.28;45.79;101268.78;1768572;80;21057;-85
2022/11/08 00:56:36;;;;;;;18.87;11.80;;;;;;;20.27;45.81;101272.10;1757841;80;21606;-85
2022/11/08 00:59:08;;;;;;;17.40;12.55;;;;;;;20.27;45.82;101267.95;1777932;80;21199;-85
2022/11/08 01:01:34;;;;;;;18.25;11.97;;;;;;;20.28;45.81;101275.13;1736174;80;21186;-86
2022/11/08 01:04:00;;;;;;;19.07;13.38;;;;;;;20.28;45.81;101276.52;1730826;80;21096;-85
2022/11/08 01:06:27;;;;;;;18.05;12.37;;;;;;;20.28;45.81;101271.54;1738953;80;21544;-85
2022/11/08 01:08:54;;;;;;;16.50;12.33;;;;;;;20.28;45.81;101272.92;1732423;81;21540;-85
2022/11/08 01:11:22;;;;;;;19.05;12.30;;;;;;;20.28;45.81;101274.30;1736742;80;21176;-85
2022/11/08 01:13:49;;;;;;;17.98;12.35;;;;;;;20.28;45.79;101274.30;1769025;80;21188;-85
2022/11/08 01:16:18;;;;;;;19.27;12.23;;;;;;;20.27;45.81;101272.10;1762640;80;21068;-85
2022/11/08 01:18:45;;;;;;;19.02;13.10;;;;;;;20.26;45.79;101274.59;1774417;80;21172;-85
2022/11/08 01:21:11;;;;;;;21.12;13.03;;;;;;;20.27;45.81;101271.28;1769170;80;21038;-85
2022/11/08 01:26:07;;;;;;;21.02;12.95;;;;;;;20.26;45.83;101273.77;1770835;79;21093;-85
2022/11/08 01:28:34;;;;;;;20.07;13.33;;;;;;;20.26;45.80;101276.53;1761334;79;21627;-85
2022/11/08 01:31:10;;;;;;;20.30;13.05;;;;;;;20.24;45.77;101278.80;1774591;79;21211;-85
2022/11/08 01:33:37;;;;;;;18.52;12.63;;;;;;;20.24;45.76;101278.21;1760029;78;21130;-85
2022/11/08 01:36:07;;;;;;;17.17;12.10;;;;;;;20.24;45.72;101279.59;1754813;80;21077;-85
2022/11/08 01:38:33;;;;;;;19.62;13.40;;;;;;;20.24;45.72;101275.45;1751116;80;21165;-85
2022/11/08 01:40:59;;;;;;;20.30;13.03;;;;;;;20.24;45.72;101278.80;1753515;80;21697;-85
2022/11/08 01:43:34;;;;;;;21.82;13.68;;;;;;;20.25;45.75;101273.51;1756953;81;21045;-85
2022/11/08 01:46:33;;;;;;;19.95;12.95;;;;;;;20.24;45.74;101276.83;1776571;80;21596;-85
2022/11/08 01:49:08;;;;;;;20.27;13.35;;;;;;;20.24;45.73;101270.52;1743894;80;21080;-85
2022/11/08 01:51:45;;;;;;;21.37;13.25;;;;;;;20.23;45.72;101271.07;1769479;81;21160;-85
2022/11/08 01:54:10;;;;;;;20.25;12.78;;;;;;;20.23;45.72;101263.34;1771606;80;21128;-85
2022/11/08 01:56:36;;;;;;;19.77;13.13;;;;;;;20.22;45.72;101268.05;1774847;80;21052;-85
2022/11/08 01:59:02;;;;;;;18.65;13.68;;;;;;;20.24;45.73;101276.04;1743596;80;21576;-85
2022/11/08 02:01:29;;;;;;;21.37;14.40;;;;;;;20.23;45.72;101270.25;1744731;80;21496;-85
2022/11/08 02:03:55;;;;;;;21.93;14.60;;;;;;;20.23;45.73;101268.86;1770449;80;21893;-85
2022/11/08 02:06:21;;;;;;;22.62;13.93;;;;;;;20.23;45.73;101268.31;1775022;80;21060;-85
2022/11/08 02:08:47;;;;;;;19.92;14.00;;;;;;;20.24;45.71;101271.89;1771165;80;21076;-85
2022/11/08 02:11:14;;;;;;;17.77;13.80;;;;;;;20.23;45.71;101271.63;1771878;80;21128;-85
2022/11/08 02:13:40;;;;;;;21.52;13.80;;;;;;;20.22;45.70;101263.90;1769660;80;21148;-85
2022/11/08 02:16:13;;;;;;;22.07;14.58;;;;;;;20.23;45.65;101269.69;1768760;80;49759;-85
2022/11/08 02:18:39;;;;;;;23.22;14.43;;;;;;;20.23;45.65;101262.78;1770269;80;20985;-85
2022/11/08 02:21:20;;;;;;;23.47;14.33;;;;;;;20.22;45.63;101264.45;1745080;80;21175;-85
2022/11/08 02:23:45;;;;;;;20.25;14.53;;;;;;;20.23;45.64;101263.34;1771273;80;21465;-85
2022/11/08 02:26:11;;;;;;;26.50;15.10;;;;;;;20.23;45.61;101264.72;1775119;80;21009;-85
2022/11/08 02:28:45;;;;;;;23.15;13.98;;;;;;;20.23;45.59;101256.43;1773677;80;21219;-85
2022/11/08 02:31:11;;;;;;;21.77;14.43;;;;;;;20.21;45.57;101260.87;1770050;80;21072;-85
2022/11/08 02:33:37;;;;;;;22.20;14.90;;;;;;;20.21;45.55;101259.48;1768252;80;21009;-85
2022/11/08 02:36:04;;;;;;;20.90;13.80;;;;;;;20.22;45.54;101261.69;1773503;80;21616;-85
2022/11/08 02:38:30;;;;;;;23.57;14.20;;;;;;;20.21;45.54;101258.11;1770265;80;21132;-85
2022/11/08 02:40:56;;;;;;;22.37;14.00;;;;;;;20.22;45.52;101261.69;1762504;80;21308;-85
2022/11/08 02:43:23;;;;;;;22.95;15.35;;;;;;;20.21;45.51;101271.09;1771062;80;21114;-85
2022/11/08 02:45:49;;;;;;;23.20;14.73;;;;;;;20.21;45.48;101271.92;1759930;80;21119;-85
2022/11/08 02:48:17;;;;;;;25.68;15.40;;;;;;;20.22;45.47;101268.59;1753502;80;21112;-86
2022/11/08 02:50:49;;;;;;;24.63;15.08;;;;;;;20.21;45.44;101269.16;1765288;79;20998;-85
2022/11/08 02:53:17;;;;;;;22.15;14.43;;;;;;;20.20;45.42;101268.10;1756048;79;21061;-85
2022/11/08 02:55:43;;;;;;;20.12;14.85;;;;;;;20.20;45.41;101273.03;1767403;80;21089;-85
2022/11/08 02:58:16;;;;;;;21.40;15.00;;;;;;;20.20;45.41;101277.18;1771056;80;21147;-85
2022/11/08 03:00:42;;;;;;;26.85;15.30;;;;;;;20.20;45.40;101273.63;1769030;80;21002;-85
2022/11/08 03:03:08;;;;;;;23.10;14.18;;;;;;;20.19;45.40;101276.12;1771894;80;21088;-85
2022/11/08 03:05:34;;;;;;;20.95;14.55;;;;;;;20.19;45.39;101281.09;1773008;80;21908;-85
2022/11/08 03:08:01;;;;;;;20.23;13.78;;;;;;;20.19;45.39;101276.95;1774937;80;21523;-85
2022/11/08 03:10:27;;;;;;;21.42;13.93;;;;;;;20.18;45.40;101273.92;1773657;80;21579;-85
2022/11/08 03:12:58;;;;;;;24.10;15.05;;;;;;;20.18;45.36;101264.80;1766090;80;21096;-85
2022/11/08 03:15:24;;;;;;;24.10;13.65;;;;;;;20.17;45.34;101272.83;1775188;79;21040;-85
2022/11/08 03:17:50;;;;;;;22.52;14.10;;;;;;;20.16;45.35;101272.00;1766677;80;21581;-85
2022/11/08 03:20:17;;;;;;;23.77;14.13;;;;;;;20.17;45.34;101275.03;1761524;80;21062;-85
2022/11/08 03:22:44;;;;;;;21.75;14.03;;;;;;;20.17;45.34;101279.17;1740349;80;21093;-85
2022/11/08 03:25:10;;;;;;;20.70;13.53;;;;;;;20.16;45.33;101277.53;1753072;81;21176;-85
2022/11/08 03:27:36;;;;;;;18.55;13.40;;;;;;;20.17;45.34;101283.88;1757502;80;21103;-85
2022/11/08 03:30:05;;;;;;;22.42;14.13;;;;;;;20.16;45.34;101282.23;1765040;80;21524;-85
2022/11/08 03:32:31;;;;;;;18.60;13.50;;;;;;;20.16;45.33;101283.61;1752287;80;21374;-85
2022/11/08 03:34:58;;;;;;;21.12;13.72;;;;;;;20.14;45.27;101274.27;1754665;80;21038;-85
2022/11/08 03:37:24;;;;;;;21.60;13.75;;;;;;;20.14;45.24;101274.27;1764362;80;21132;-85
2022/11/08 03:39:50;;;;;;;19.77;13.18;;;;;;;20.15;45.22;101272.33;1753469;80;21045;-85
2022/11/08 03:42:17;;;;;;;20.95;12.93;;;;;;;20.15;45.24;101270.95;1761247;80;21582;-85
2022/11/08 03:44:43;;;;;;;21.73;12.93;;;;;;;20.14;45.29;101272.89;1761760;81;21084;-85
2022/11/08 03:47:09;;;;;;;24.45;14.30;;;;;;;20.14;45.26;101271.50;1764436;80;21061;-85
2022/11/08 03:49:35;;;;;;;20.75;13.43;;;;;;;20.14;45.27;101269.30;1760361;80;21466;-85
2022/11/08 03:52:01;;;;;;;19.80;13.32;;;;;;;20.15;45.28;101273.71;1752776;80;20923;-85
2022/11/08 03:54:27;;;;;;;18.27;13.65;;;;;;;20.15;45.28;101269.56;1766832;80;21153;-85
2022/11/08 03:59:19;;;;;;;20.17;13.32;;;;;;;20.14;45.26;101264.59;1746733;80;21780;-85
2022/11/08 04:01:45;;;;;;;21.37;13.72;;;;;;;20.15;45.24;101262.10;1761210;79;21039;-85
2022/11/08 04:04:11;;;;;;;20.88;12.65;;;;;;;20.15;45.23;101266.80;1744591;80;21126;-85
2022/11/08 04:06:38;;;;;;;17.40;12.93;;;;;;;20.15;45.24;101258.52;1733088;81;21155;-86
2022/11/08 04:09:04;;;;;;;20.95;13.58;;;;;;;20.14;45.23;101258.25;1774990;79;22282;-86
2022/11/08 04:22:10;;;;;;;21.60;12.53;;;;;;;20.13;45.21;101260.19;1792498;79;21067;-85
2022/11/08 04:24:37;;;;;;;19.12;12.55;;;;;;;20.13;45.20;101253.28;1792084;79;21442;-85
2022/11/08 04:27:03;;;;;;;19.15;12.65;;;;;;;20.13;45.22;101253.28;1767708;79;21070;-85
2022/11/08 04:29:29;;;;;;;23.00;13.05;;;;;;;20.14;45.21;101255.48;1776111;79;21120;-85
2022/11/08 04:31:55;;;;;;;20.35;12.88;;;;;;;20.14;45.22;101255.48;1766280;80;21493;-85
2022/11/08 04:34:21;;;;;;;19.02;12.45;;;;;;;20.13;45.20;101255.22;1733656;80;20895;-85
2022/11/08 04:36:47;;;;;;;18.25;12.43;;;;;;;20.14;45.17;101249.41;1764457;80;20975;-85
2022/11/08 04:39:14;;;;;;;18.87;12.85;;;;;;;20.14;45.11;101252.73;1771606;80;21531;-86
2022/11/08 04:41:40;;;;;;;16.85;11.78;;;;;;;20.13;45.13;101249.14;1766602;80;21533;-85
2022/11/08 04:44:06;;;;;;;20.50;12.07;;;;;;;20.14;45.09;101248.58;1763415;80;21022;-85
2022/11/08 04:46:32;;;;;;;20.20;12.43;;;;;;;20.14;45.08;101249.97;1740776;80;21069;-85
2022/11/08 04:48:59;;;;;;;17.30;12.00;;;;;;;20.16;45.06;101251.84;1765794;80;21086;-85
2022/11/08 04:51:28;;;;;;;20.55;13.05;;;;;;;20.17;45.04;101252.11;1745668;79;21046;-85
2022/11/08 04:53:56;;;;;;;16.50;11.85;;;;;;;20.19;44.98;101249.88;1697379;83;21200;-85
2022/11/08 04:56:22;;;;;;;21.42;12.58;;;;;;;20.22;44.95;101254.23;1767884;80;21936;-85
2022/11/08 04:58:51;;;;;;;18.52;11.63;;;;;;;20.27;44.89;101254.70;1765372;80;21051;-85
2022/11/08 05:01:19;;;;;;;16.77;10.63;;;;;;;20.32;44.81;101256.84;1771038;79;21140;-85
2022/11/08 05:03:47;;;;;;;16.05;10.63;;;;;;;20.37;44.79;101258.67;1773017;80;21054;-86
2022/11/08 05:06:17;;;;;;;16.45;11.10;;;;;;;20.44;44.74;101260.48;1758350;80;21581;-86
2022/11/08 05:08:43;;;;;;;17.02;10.60;;;;;;;20.49;44.67;101259.84;1771160;80;22185;-86
2022/11/08 05:11:13;;;;;;;17.45;11.28;;;;;;;20.58;44.62;101258.53;1782960;79;21026;-86
2022/11/08 05:13:40;;;;;;;15.95;9.98;;;;;;;20.67;44.55;101262.78;1780469;78;21011;-86
2022/11/08 05:16:19;;;;;;;15.08;9.70;;;;;;;20.75;44.46;101269.80;1756297;80;21100;-86
2022/11/08 05:18:45;;;;;;;14.63;9.18;;;;;;;20.84;44.40;101269.34;1742124;80;21176;-86
2022/11/08 05:24:00;;;;;;;15.70;9.50;;;;;;;21.05;44.24;101271.11;1694200;82;21156;-87
2022/11/08 05:26:26;;;;;;;13.55;9.20;;;;;;;21.16;44.14;101276.73;1704748;82;21085;-87
2022/11/08 05:28:53;;;;;;;14.38;9.05;;;;;;;21.27;44.05;101280.08;1734753;81;21555;-86
2022/11/08 05:31:19;;;;;;;15.60;9.40;;;;;;;21.38;44.00;101278.74;1698781;82;21026;-87
2022/11/08 05:33:45;;;;;;;15.60;9.28;;;;;;;21.49;43.92;101284.84;1727384;81;21669;-88
2022/11/08 05:36:13;;;;;;;16.25;10.05;;;;;;;21.60;43.79;101283.50;1682958;83;21127;-88
2022/11/08 05:38:39;;;;;;;16.62;8.85;;;;;;;21.70;43.70;101284.63;1733867;81;21040;-84
2022/11/08 05:41:11;;;;;;;16.48;9.53;;;;;;;21.79;43.60;101292.44;1713271;80;21094;-84
2022/11/08 05:43:38;;;;;;;13.03;9.23;;;;;;;21.87;43.51;101280.61;1714135;82;21586;-85
2022/11/08 05:46:04;;;;;;;15.50;9.50;;;;;;;21.92;43.41;101290.22;1762278;80;21333;-86
2022/11/08 05:50:56;;;;;;;19.25;9.68;;;;;;;21.99;43.29;101286.42;1752704;79;21088;-86
2022/11/08 05:53:23;;;;;;;25.97;10.23;;;;;;;22.01;43.18;101287.50;1774608;78;21276;-84
2022/11/08 05:55:49;;;;;;;38.08;10.25;;;;;;;22.00;43.11;101289.45;1768796;79;21167;-91
2022/11/08 05:58:15;;;;;;;41.70;11.03;;;;;;;22.01;43.03;101299.98;1761525;80;21088;-85
2022/11/08 06:00:42;;;;;;;26.23;9.28;;;;;;;22.00;42.99;101295.00;1755921;80;21543;-85
2022/11/08 06:03:08;;;;;;;37.28;9.33;;;;;;;22.01;43.02;101293.05;1759497;79;21440;-87
2022/11/08 06:05:35;;;;;;;33.95;10.35;;;;;;;22.03;43.05;101296.30;1733182;80;21557;-91
2022/11/08 06:08:01;;;;;;;32.05;9.78;;;;;;;22.04;43.09;101305.70;1761814;79;21041;-89
2022/11/08 06:10:28;;;;;;;28.95;9.23;;;;;;;22.07;43.14;101302.84;1766830;79;21444;-90
2022/11/08 06:13:02;;;;;;;26.48;9.30;;;;;;;22.10;43.25;101299.47;1741832;79;21151;-90
2022/11/08 06:15:28;;;;;;;28.92;9.75;;;;;;;22.12;43.29;101299.39;1757666;80;21100;-91
2022/11/08 06:17:54;;;;;;;18.30;8.73;;;;;;;22.16;43.36;101305.94;1747208;79;21099;-88
2022/11/08 06:20:21;;;;;;;22.75;9.30;;;;;;;22.18;43.45;101302.30;1764610;78;21048;-86
2022/11/08 06:22:47;;;;;;;28.65;9.33;;;;;;;22.20;43.50;101305.55;1751566;79;21698;-87
2022/11/08 06:25:14;;;;;;;28.00;9.88;;;;;;;22.22;43.54;101306.08;1753306;79;21735;-87
2022/11/08 06:27:40;;;;;;;23.83;9.90;;;;;;;22.23;43.61;101311.05;1691194;82;21696;-87
2022/11/08 06:30:05;;;;;;;22.17;9.70;;;;;;;22.23;43.66;101304.95;1745179;80;21122;-87
2022/11/08 06:32:38;;;;;;;30.82;10.55;;;;;;;22.24;43.72;101313.48;1757554;80;21515;-88
2022/11/08 06:35:05;;;;;;;20.45;9.00;;;;;;;22.25;43.76;101308.20;1761982;79;21881;-86
2022/11/08 06:39:59;;;;;;;21.90;9.63;;;;;;;22.30;43.96;101313.62;1761585;79;21131;-88
2022/11/08 06:42:27;;;;;;;23.57;10.38;;;;;;;22.32;44.05;101310.52;1761460;80;21498;-88
2022/11/08 06:44:54;;;;;;;18.52;9.43;;;;;;;22.36;44.08;101312.11;1753051;79;21155;-85
2022/11/08 06:47:20;;;;;;;23.75;10.43;;;;;;;22.36;44.15;101313.49;1743316;80;21585;-87
2022/11/08 06:49:46;;;;;;;24.43;11.35;;;;;;;22.40;44.17;101313.94;1765840;79;21148;-87
2022/11/08 06:52:12;;;;;;;29.92;10.38;;;;;;;22.42;44.21;101317.75;1754410;79;21032;-88
2022/11/08 06:54:38;;;;;;;21.30;11.18;;;;;;;22.44;44.20;101318.27;1751757;80;21132;-88
2022/11/08 06:57:05;;;;;;;32.60;11.50;;;;;;;22.46;44.24;101314.03;1733741;80;21148;-87
2022/11/08 06:59:38;;;;;;;34.40;10.98;;;;;;;22.50;44.23;101312.25;1759039;79;21583;-89
2022/11/08 07:02:09;;;;;;;35.43;11.48;;;;;;;22.55;44.26;101316.84;1766428;79;21075;-89
2022/11/08 07:04:37;;;;;;;33.45;11.40;;;;;;;22.60;44.27;101316.72;1764257;78;21026;-86
2022/11/08 07:07:03;;;;;;;35.23;10.70;;;;;;;22.62;44.29;101308.88;1749740;79;21061;-86
2022/11/08 07:09:29;;;;;;;36.53;11.15;;;;;;;22.64;44.31;101310.78;1761443;79;21203;-89
2022/11/08 07:12:01;;;;;;;29.75;10.65;;;;;;;22.66;44.37;101309.31;1762743;79;21041;-92
2022/11/08 07:14:28;;;;;;;34.13;11.50;;;;;;;22.67;44.15;101312.34;1765129;78;21077;-87
2022/11/08 07:16:54;;;;;;;31.57;11.22;;;;;;;22.67;44.42;101308.74;1767349;78;21131;-86
2022/11/08 07:19:20;;;;;;;28.07;11.75;;;;;;;22.66;44.48;101311.30;1755939;79;21695;-87
2022/11/08 07:21:47;;;;;;;31.15;12.55;;;;;;;22.66;44.54;101307.92;1755737;78;21023;-86
2022/11/08 07:24:13;;;;;;;39.00;12.15;;;;;;;22.64;44.64;101317.15;1758485;79;21293;-86
2022/11/08 07:26:39;;;;;;;24.70;10.93;;;;;;;22.63;44.73;101314.69;1764800;78;21145;-87
2022/11/08 07:31:31;;;;;;;31.25;10.70;;;;;;;22.60;44.99;101330.58;1762884;79;20978;-88
2022/11/08 07:33:57;;;;;;;25.00;11.10;;;;;;;22.57;45.09;101323.73;1762454;79;20933;-86
2022/11/08 07:36:24;;;;;;;22.52;10.80;;;;;;;22.56;45.20;101322.66;1752585;79;21213;-86
2022/11/08 07:38:51;;;;;;;22.58;10.43;;;;;;;22.52;45.29;101328.02;1748973;80;21695;-86
2022/11/08 07:41:17;;;;;;;23.83;11.08;;;;;;;22.50;45.38;101330.84;1757193;79;21139;-86
2022/11/08 07:43:43;;;;;;;25.57;11.83;;;;;;;22.46;45.47;101332.61;1763699;79;21091;-87
2022/11/08 07:46:09;;;;;;;23.47;10.32;;;;;;;22.41;45.53;101332.18;1755574;79;21410;-87
2022/11/08 07:48:36;;;;;;;35.75;12.20;;;;;;;22.38;45.63;101336.16;1763333;79;22215;-87
2022/11/08 07:51:02;;;;;;;40.95;11.68;;;;;;;22.30;45.60;101333.02;1763429;78;21071;-86
2022/11/08 07:53:29;;;;;;;28.20;11.00;;;;;;;22.24;45.71;101334.84;1764247;79;21123;-88
2022/11/08 07:55:57;;;;;;;30.50;11.03;;;;;;;22.20;45.92;101329.68;1759651;78;21556;-88
2022/11/08 07:58:23;;;;;;;42.10;12.43;;;;;;;22.17;46.06;101333.91;1760598;78;21049;-90
2022/11/08 08:00:49;;;;;;;37.25;12.85;;;;;;;22.12;46.23;101329.88;1762244;79;21208;-85
2022/11/08 08:03:18;;;;;;;40.35;11.85;;;;;;;22.08;46.33;101334.41;1754731;79;21560;-91
2022/11/08 08:05:44;;;;;;;72.08;12.35;;;;;;;22.03;46.48;101339.25;1749348;79;21166;-87
2022/11/08 08:08:17;;;;;;;50.10;13.35;;;;;;;22.01;46.63;101342.36;1760611;79;21103;-88
2022/11/08 08:10:44;;;;;;;42.75;12.05;;;;;;;21.98;46.75;101338.80;1757677;78;21503;-85
2022/11/08 08:13:10;;;;;;;53.87;11.78;;;;;;;21.95;46.86;101335.28;1753478;79;21280;-88
2022/11/08 08:15:36;;;;;;;38.67;11.48;;;;;;;21.94;46.96;101342.55;1757725;79;21104;-88
2022/11/08 08:18:04;;;;;;;40.85;12.25;;;;;;;21.92;47.05;101342.00;1756006;79;21050;-87
2022/11/08 08:20:30;;;;;;;43.35;12.65;;;;;;;21.88;47.15;101339.86;1764242;79;22114;-90
2022/11/08 08:22:57;;;;;;;32.50;10.78;;;;;;;21.89;47.26;101347.61;1763461;79;21847;-89
2022/11/08 08:25:23;;;;;;;33.30;10.75;;;;;;;21.87;47.34;101347.09;1755464;79;21892;-86
2022/11/08 08:27:51;;;;;;;35.28;11.55;;;;;;;21.85;47.41;101346.01;1741621;80;21142;-84
2022/11/08 08:30:18;;;;;;;32.10;11.20;;;;;;;21.83;47.49;101344.69;1761280;79;21782;-85
2022/11/08 08:32:51;;;;;;;31.00;10.90;;;;;;;21.82;47.58;101347.20;1767139;79;21050;-88
2022/11/08 08:35:17;;;;;;;37.73;10.98;;;;;;;21.80;47.61;101350.30;1749202;80;21212;-87
2022/11/08 08:37:43;;;;;;;35.17;11.30;;;;;;;21.79;47.68;101350.61;1755486;79;21157;-87
2022/11/08 08:40:11;;;;;;;44.18;11.45;;;;;;;21.77;47.74;101353.68;1757390;79;21051;-88
2022/11/08 08:42:37;;;;;;;50.25;13.72;;;;;;;21.77;47.76;101353.68;1728760;80;22304;-88
2022/11/08 08:45:04;;;;;;;47.70;12.88;;;;;;;21.77;47.79;101357.01;1763135;79;21116;-88
2022/11/08 08:47:30;;;;;;;55.00;14.50;;;;;;;21.75;47.79;101353.19;1743941;79;21119;-88
2022/11/08 08:49:57;;;;;;;65.37;14.33;;;;;;;21.74;47.78;101357.64;1751048;79;21513;-88
2022/11/08 08:52:23;;;;;;;63.33;14.73;;;;;;;21.74;48.16;101357.64;1762038;79;21076;-87
2022/11/08 08:54:50;;;;;;;78.60;14.13;;;;;;;21.73;48.58;101353.23;1757966;78;21717;-90
2022/11/08 08:57:16;;;;;;;86.70;16.40;;;;;;;21.73;48.95;101354.05;1767607;78;21176;-88
2022/11/08 08:59:43;;;;;;;62.85;14.20;;;;;;;21.73;49.22;101356.82;1757601;79;21235;-87
2022/11/08 09:02:10;;;;;;;75.05;13.75;;;;;;;21.74;49.63;101357.08;1760786;79;21143;-87
2022/11/08 09:04:37;;;;;;;80.17;14.43;;;;;;;21.75;49.96;101358.73;1754963;79;21139;-87
2022/11/08 09:07:06;;;;;;;76.50;16.10;;;;;;;21.77;50.50;101355.06;1751451;79;21153;-86
2022/11/08 09:09:33;;;;;;;54.98;12.85;;;;;;;21.78;50.70;101349.78;1749222;79;21597;-86
2022/11/08 09:12:00;;;;;;;54.30;14.05;;;;;;;21.79;50.64;101357.53;1754786;80;21049;-87
2022/11/08 09:14:27;;;;;;;69.97;16.40;;;;;;;21.77;50.62;101356.45;1754266;79;22386;-87
2022/11/08 09:16:53;;;;;;;63.75;14.20;;;;;;;21.76;50.63;101350.68;1758607;80;21209;-88
2022/11/08 09:19:20;;;;;;;61.42;14.70;;;;;;;21.74;50.66;101347.39;1755637;80;21554;-91
2022/11/08 09:21:46;;;;;;;59.08;15.35;;;;;;;21.72;50.66;101348.84;1694444;82;21185;-91
2022/11/08 09:24:12;;;;;;;65.32;14.83;;;;;;;21.71;50.69;101344.42;1724264;80;21511;-89
2022/11/08 09:26:42;;;;;;;69.05;14.73;;;;;;;21.69;50.74;101346.11;1752593;80;21165;-89
2022/11/08 09:29:12;;;;;;;61.45;15.15;;;;;;;21.70;50.73;101352.47;1753011;80;21182;-89
2022/11/08 09:31:39;;;;;;;59.50;14.87;;;;;;;21.67;50.76;101347.01;1751585;79;21059;-89
2022/11/08 09:34:05;;;;;;;64.12;15.10;;;;;;;21.66;50.76;101352.28;1747665;80;21915;-90
2022/11/08 09:36:32;;;;;;;67.50;17.70;;;;;;;21.64;50.79;101348.20;1763268;79;21142;-84
2022/11/08 09:39:09;;;;;;;79.97;16.65;;;;;;;21.62;50.83;101337.98;1737024;80;21133;-86
2022/11/08 09:42:14;;;;;;;59.45;16.75;;;;;;;21.61;51.37;101340.50;1759923;79;21139;-88
2022/11/08 09:44:52;;;;;;;68.67;15.50;;;;;;;21.64;52.05;101339.89;1763410;79;21029;-87
2022/11/08 09:47:31;;;;;;;53.87;14.43;;;;;;;21.65;52.24;101340.12;1750019;79;21057;-83
2022/11/08 09:49:57;;;;;;;45.20;12.95;;;;;;;21.64;52.17;101339.89;1728176;80;21109;-86
2022/11/08 09:52:42;;;;;;;43.58;12.63;;;;;;;21.59;51.79;101336.67;1755460;79;21092;-89
2022/11/08 09:55:18;;;;;;;44.20;12.23;;;;;;;21.56;51.53;101341.42;1749692;78;21613;-88
2022/11/08 09:58:35;;;;;;;39.00;11.18;;;;;;;21.56;51.37;101333.12;1757782;79;21154;-90
2022/11/08 10:01:06;;;;;;;35.68;11.50;;;;;;;21.55;51.21;101334.27;1738078;79;21171;-85
2022/11/08 10:03:54;;;;;;;35.15;12.55;;;;;;;21.55;50.86;101331.50;1761114;79;21206;-90
2022/11/08 10:06:48;;;;;;;38.50;13.22;;;;;;;21.54;50.72;101334.02;1760164;78;21217;-86
2022/11/08 10:09:59;;;;;;;41.23;12.47;;;;;;;21.52;50.65;101322.41;1744126;79;21500;-87
2022/11/08 10:18:50;;;;;;;34.08;11.95;;;;;;;21.48;50.38;101322.78;1757954;79;21069;-87
2022/11/08 10:21:49;;;;;;;32.48;12.93;;;;;;;21.44;50.21;101317.62;1762643;79;21080;-87
2022/11/08 10:27:03;;;;;;;25.52;12.28;;;;;;;21.37;49.70;101313.91;1755291;80;21052;-86
2022/11/08 10:29:36;;;;;;;27.75;12.03;;;;;;;21.34;49.49;101309.56;1767323;79;21971;-88
2022/11/08 10:32:14;;;;;;;25.48;12.07;;;;;;;21.33;49.47;101317.60;1760045;79;21013;-87
2022/11/08 10:37:34;;;;;;;26.50;13.13;;;;;;;21.30;49.44;101304.39;1749631;80;21082;-91
2022/11/08 10:40:22;;;;;;;36.80;16.15;;;;;;;21.28;49.46;101307.45;1743270;79;21299;-88
2022/11/08 10:42:59;;;;;;;26.80;12.40;;;;;;;21.28;49.65;101303.86;1755386;79;21009;-89
2022/11/08 10:45:33;;;;;;;28.85;13.38;;;;;;;21.28;49.75;101310.22;1768390;79;21109;-86
2022/11/08 10:47:59;;;;;;;29.30;14.73;;;;;;;21.30;49.97;101309.33;1759209;80;21161;-87
2022/11/08 10:50:37;;;;;;;24.00;13.83;;;;;;;21.32;49.87;101306.27;1739640;79;21021;-87
2022/11/08 10:55:52;;;;;;;35.88;12.25;;;;;;;21.32;49.87;101303.50;1739917;80;21040;-91
2022/11/08 10:58:33;;;;;;;43.23;12.40;;;;;;;21.34;49.79;101304.81;1768251;79;21155;-89
2022/11/08 11:01:19;;;;;;;71.45;14.65;;;;;;;21.36;49.72;101306.72;1761058;79;21112;-87
2022/11/08 11:03:56;;;;;;;71.15;14.20;;;;;;;21.37;49.50;101306.16;1757850;79;21912;-92
2022/11/08 11:06:53;;;;;;;;;;;;;;;;;;;;;
2022/11/08 11:09:35;;;;;;;45.73;11.65;;;;;;;21.34;49.33;101310.34;1658101;82;21250;-85
2022/11/08 11:17:39;;;;;;;37.45;11.48;;;;;;;21.29;49.21;101297.21;1642358;84;21225;-90
2022/11/08 11:20:23;;;;;;;53.45;15.65;;;;;;;21.28;49.09;101303.86;1667141;83;21230;-88
2022/11/08 11:22:54;;;;;;;44.33;16.30;;;;;;;21.26;49.19;101300.02;1711862;82;21185;-91
2022/11/08 11:25:20;;;;;;;39.58;15.53;;;;;;;21.24;49.19;101297.31;1726527;81;21463;-89
2022/11/08 11:28:38;;;;;;;;;;;;;;;;;;;;;
2022/11/08 11:31:14;;;;;;;37.88;14.55;;;;;;;21.24;49.20;101301.47;1739925;79;22152;-94
2022/11/08 11:33:49;;;;;;;40.55;14.03;;;;;;;21.21;49.18;101289.64;1751613;80;20929;-89
2022/11/08 11:36:12;;;;;;;41.10;17.48;;;;;;;21.21;49.20;101295.17;1721601;80;20981;-90
2022/11/08 11:38:43;;;;;;;37.28;16.57;;;;;;;21.20;49.12;101292.14;1728571;80;21094;-89
2022/11/08 11:41:18;;;;;;;34.60;13.50;;;;;;;21.19;49.07;101291.33;1747131;79;21190;-88
2022/11/08 11:44:04;;;;;;;29.85;14.25;;;;;;;21.19;49.10;101294.66;1752362;79;21157;-90
2022/11/08 11:49:34;;;;;;;31.75;14.28;;;;;;;21.19;49.01;101290.50;1734569;79;21120;-92
2022/11/08 11:54:32;;;;;;;29.95;12.35;;;;;;;21.15;48.85;101283.39;1764418;79;21551;-90
2022/11/08 11:57:23;;;;;;;36.65;11.78;;;;;;;21.16;48.91;101281.45;1756195;79;22391;-93
2022/11/08 12:00:14;;;;;;;34.73;11.85;;;;;;;21.17;48.94;101289.45;1729337;79;21110;-90
2022/11/08 12:03:13;;;;;;;41.93;11.20;;;;;;;21.19;48.96;101291.88;1753104;79;21205;-87
2022/11/08 12:09:44;;;;;;;35.33;12.40;;;;;;;21.17;48.98;101285.86;1754472;79;21048;-91
2022/11/08 12:15:56;;;;;;;36.95;12.25;;;;;;;21.11;49.09;101279.57;1753318;79;21164;-91
2022/11/08 12:18:43;;;;;;;38.10;11.63;;;;;;;21.10;49.16;101286.79;1764351;78;21108;-89
2022/11/08 12:21:51;;;;;;;35.38;11.25;;;;;;;21.09;49.20;101288.73;1755460;79;21334;-89
2022/11/08 12:27:47;;;;;;;22.73;11.55;;;;;;;21.08;49.37;101284.91;1766563;79;21315;-87
2022/11/08 12:33:39;;;;;;;79.10;14.78;;;;;;;21.08;49.23;101283.53;1757707;80;21601;-89
2022/11/08 12:36:35;;;;;;;55.80;11.75;;;;;;;21.07;49.19;101287.42;1753358;80;21057;-92
2022/11/08 12:39:32;;;;;;;43.38;12.30;;;;;;;21.04;49.23;101288.86;1751591;79;22170;-91